Pickton, Texas
Current Conditions -  °F | °C
As of 3:15 AM on Friday 24 Oct 2014 (Local Time) from KSLR Reporting Station
Clear Clear  
Wind Chill: 13°   Ceiling: Unl
Heat Index: 13°   Visibility: 10mi
Dew Point: 12°   Wind: 3mph
Humidity: 94%   Direction: 110°ESE
Pressure: 30.16"   Gusts: NA
Location:  33.03°N, 95.39°W
Report Text: KSLR 240815Z AUTO 11003KT 10SM CLR 13/12 A3016 RMK AO2 T01300121
Loading
Personal Weather Stations






























Interactive Weather Map
Tropical Storm Tracking
New forecast layout! Learn more

10-Day Weather Forecast

Advertisements
Track Severe Weather on mobile